In Rescue
 
Open Full Screen Window  High Contrast Mode
May 13, 2021 10:43 AM EDT
Weather Information
Wind Direction
  ---
Wind Speed
  00 kt (0 mph)
Wind Gust
  00 kt (0 mph)
Altimeter
30.36 in
Visibility
10 SM
Temperature
16° C
61° F
Dewpoint
-01° C
30° F
Humidity
31%
Sky Condition
Clear
VFR

METAR KSLH 131443Z AUTO 00000KT 10SM CLR 16/M01 A3036 RMK AO2

FAA Disclaimer: The data displayed is for advisory purposes only and is not to be used for flight planning or operations.